Time;durP1;ratioP1;P1;durP2;ratioP2;P2;SDS_P1;SDS_P2;PMS_P1;PMS_P2;Temp;Humidity;BMP_temperature;BMP_pressure;BME280_temperature;BME280_humidity;BME280_pressure;Samples;Min_cycle;Max_cycle;Signal;HPM_P1;HPM_P2
2022/04/27 00:00:26;;;;;;;8.10;7.50;;;;;;;;;;5095315;28;20468;-62
2022/04/27 00:02:52;;;;;;;8.67;7.97;;;;;;;;;;5095564;28;20495;-63
2022/04/27 00:05:19;;;;;;;8.80;7.20;;;;;;;;;;5095447;28;20405;-63
2022/04/27 00:07:45;;;;;;;6.70;6.30;;;;;;;;;;5095225;28;20398;-63
2022/04/27 00:10:11;;;;;;;7.90;7.40;;;;;;;;;;5095017;28;20421;-63
2022/04/27 00:12:38;;;;;;;8.73;8.03;;;;;;;;;;5095063;28;20404;-63
2022/04/27 00:15:05;;;;;;;8.00;7.30;;;;;;;;;;5095040;28;20500;-63
2022/04/27 00:17:31;;;;;;;7.10;6.73;;;;;;;;;;5095081;28;20823;-63
2022/04/27 00:19:57;;;;;;;7.90;7.30;;;;;;;;;;5094870;28;20500;-63
2022/04/27 00:22:23;;;;;;;6.33;6.03;;;;;;;;;;5094934;28;20398;-63
2022/04/27 00:24:49;;;;;;;6.00;5.53;;;;;;;;;;5094900;28;20814;-63
2022/04/27 00:27:15;;;;;;;6.43;6.03;;;;;;;;;;5095121;28;20748;-63
2022/04/27 00:29:44;;;;;;;6.90;6.50;;;;;;;;;;5094724;28;20418;-63
2022/04/27 00:32:10;;;;;;;7.40;6.80;;;;;;;;;;5094691;28;20413;-63
2022/04/27 00:34:36;;;;;;;6.67;6.27;;;;;;;;;;5094610;28;20405;-64
2022/04/27 00:37:02;;;;;;;6.40;5.90;;;;;;;;;;5094634;28;20393;-64
2022/04/27 00:39:31;;;;;;;7.17;6.57;;;;;;;;;;5094378;28;20480;-63
2022/04/27 00:42:00;;;;;;;7.33;6.70;;;;;;;;;;5094540;28;20433;-63
2022/04/27 00:44:33;;;;;;;6.07;5.73;;;;;;;;;;5093759;28;20423;-63
2022/04/27 00:47:00;;;;;;;6.00;5.60;;;;;;;;;;5094377;28;20401;-64
2022/04/27 00:49:27;;;;;;;5.23;5.03;;;;;;;;;;5094612;28;20794;-64
2022/04/27 00:51:53;;;;;;;5.73;5.43;;;;;;;;;;5094328;28;20864;-63
2022/04/27 00:54:22;;;;;;;5.47;5.17;;;;;;;;;;5094294;28;20421;-63
2022/04/27 00:56:49;;;;;;;5.47;5.17;;;;;;;;;;5094307;28;20429;-63
2022/04/27 00:59:15;;;;;;;5.60;5.40;;;;;;;;;;5094111;28;20505;-63
2022/04/27 01:01:41;;;;;;;5.10;4.90;;;;;;;;;;5094178;28;20398;-63
2022/04/27 01:04:08;;;;;;;5.40;5.17;;;;;;;;;;5092871;28;20477;-63
2022/04/27 01:06:35;;;;;;;5.33;5.13;;;;;;;;;;5094338;28;20847;-63
2022/04/27 01:09:01;;;;;;;5.30;5.10;;;;;;;;;;5094019;28;20876;-63
2022/04/27 01:11:27;;;;;;;4.90;4.70;;;;;;;;;;5093977;28;20496;-63
2022/04/27 01:13:53;;;;;;;5.60;5.40;;;;;;;;;;5093942;28;20417;-64
2022/04/27 01:16:19;;;;;;;5.00;4.83;;;;;;;;;;5094155;28;20405;-63
2022/04/27 01:18:45;;;;;;;5.17;5.07;;;;;;;;;;5093886;28;20927;-63
2022/04/27 01:21:12;;;;;;;5.90;5.60;;;;;;;;;;5094125;28;20410;-64
2022/04/27 01:23:39;;;;;;;5.00;4.70;;;;;;;;;;5093857;28;20813;-63
2022/04/27 01:26:05;;;;;;;5.80;5.40;;;;;;;;;;5093741;28;20904;-63
2022/04/27 01:28:32;;;;;;;5.40;5.20;;;;;;;;;;5093752;28;20417;-63
2022/04/27 01:31:03;;;;;;;5.70;5.43;;;;;;;;;;5093678;28;20417;-62
2022/04/27 01:33:38;;;;;;;6.07;5.77;;;;;;;;;;5093792;28;20479;-63
2022/04/27 01:36:05;;;;;;;5.63;5.33;;;;;;;;;;5093687;28;20446;-63
2022/04/27 01:38:38;;;;;;;5.70;5.50;;;;;;;;;;5093559;28;20459;-63
2022/04/27 01:41:05;;;;;;;6.30;5.80;;;;;;;;;;5093631;28;20432;-62
2022/04/27 01:43:33;;;;;;;6.30;5.90;;;;;;;;;;5093601;28;20470;-63
2022/04/27 01:45:59;;;;;;;5.37;4.97;;;;;;;;;;5093865;28;20393;-64
2022/04/27 01:48:26;;;;;;;6.50;5.50;;;;;;;;;;5093518;28;20769;-63
2022/04/27 01:50:52;;;;;;;5.57;5.17;;;;;;;;;;5092258;28;20446;-63
2022/04/27 01:56:03;;;;;;;5.97;5.67;;;;;;;;;;5095564;28;20401;-63
2022/04/27 01:58:29;;;;;;;6.10;5.70;;;;;;;;;;5097642;28;20800;-63
2022/04/27 02:00:55;;;;;;;6.37;5.97;;;;;;;;;;5097537;28;20559;-62
2022/04/27 02:03:22;;;;;;;7.30;6.80;;;;;;;;;;5097894;28;20478;-63
2022/04/27 02:05:48;;;;;;;6.37;5.97;;;;;;;;;;5097508;28;20401;-63
2022/04/27 02:08:15;;;;;;;8.73;6.07;;;;;;;;;;5097511;28;20390;-63
2022/04/27 02:10:41;;;;;;;6.90;6.50;;;;;;;;;;5097535;28;20393;-63
2022/04/27 02:13:08;;;;;;;6.13;5.80;;;;;;;;;;5097349;28;20408;-63
2022/04/27 02:15:35;;;;;;;6.97;6.57;;;;;;;;;;5097306;28;20823;-63
2022/04/27 02:18:01;;;;;;;6.30;6.00;;;;;;;;;;5097449;28;20413;-63
2022/04/27 02:20:28;;;;;;;6.37;5.97;;;;;;;;;;5097430;28;20495;-63
2022/04/27 02:22:54;;;;;;;6.73;6.23;;;;;;;;;;5097302;28;20446;-63
2022/04/27 02:25:20;;;;;;;7.03;6.40;;;;;;;;;;5097245;28;20380;-64
2022/04/27 02:27:47;;;;;;;6.17;5.87;;;;;;;;;;5097199;28;20845;-65
2022/04/27 02:30:13;;;;;;;5.97;5.67;;;;;;;;;;5097118;28;20394;-62
2022/04/27 02:32:40;;;;;;;5.90;5.60;;;;;;;;;;5095807;28;20436;-64
2022/04/27 02:35:06;;;;;;;6.73;6.33;;;;;;;;;;5097208;28;20457;-65
2022/04/27 02:37:33;;;;;;;6.60;6.20;;;;;;;;;;5097013;28;20492;-63
2022/04/27 02:39:59;;;;;;;7.50;6.80;;;;;;;;;;5095406;28;20534;-63
2022/04/27 02:42:25;;;;;;;6.17;5.87;;;;;;;;;;5097125;28;20428;-63
2022/04/27 02:44:51;;;;;;;7.23;6.73;;;;;;;;;;5096744;28;20926;-63
2022/04/27 02:47:18;;;;;;;7.33;6.83;;;;;;;;;;5096746;28;20401;-63
2022/04/27 02:52:29;;;;;;;6.00;5.57;;;;;;;;;;5096659;28;20903;-63
2022/04/27 02:54:55;;;;;;;7.10;6.40;;;;;;;;;;5096554;28;20376;-63
2022/04/27 02:57:21;;;;;;;5.70;5.30;;;;;;;;;;5096532;28;20413;-63
2022/04/27 02:59:47;;;;;;;6.03;5.43;;;;;;;;;;5096621;28;20506;-63
2022/04/27 03:02:13;;;;;;;6.83;6.33;;;;;;;;;;5096472;28;20470;-63
2022/04/27 03:04:39;;;;;;;4.60;4.50;;;;;;;;;;5096353;28;20409;-63
2022/04/27 03:07:06;;;;;;;5.93;5.47;;;;;;;;;;5095656;28;20450;-63
2022/04/27 03:09:32;;;;;;;4.83;4.73;;;;;;;;;;5096247;28;20416;-63
2022/04/27 03:11:58;;;;;;;5.53;5.17;;;;;;;;;;5096410;28;20376;-63
2022/04/27 03:14:24;;;;;;;4.80;4.60;;;;;;;;;;5096401;28;20429;-63
2022/04/27 03:16:52;;;;;;;5.50;5.30;;;;;;;;;;5096211;28;20832;-63
2022/04/27 03:19:18;;;;;;;6.37;5.97;;;;;;;;;;5096046;28;20456;-63
2022/04/27 03:21:44;;;;;;;5.93;5.53;;;;;;;;;;5096110;28;20383;-63
2022/04/27 03:24:10;;;;;;;5.50;5.23;;;;;;;;;;5096099;28;20393;-63
2022/04/27 03:26:36;;;;;;;6.03;5.70;;;;;;;;;;5096041;28;20500;-63
2022/04/27 03:29:03;;;;;;;5.77;5.37;;;;;;;;;;5095847;28;20413;-62
2022/04/27 03:31:29;;;;;;;6.63;5.63;;;;;;;;;;5096053;28;20762;-63
2022/04/27 03:33:55;;;;;;;5.97;5.57;;;;;;;;;;5095880;28;20876;-63
2022/04/27 03:36:21;;;;;;;5.67;5.37;;;;;;;;;;5095848;28;20398;-63
2022/04/27 03:38:50;;;;;;;6.23;5.93;;;;;;;;;;5095536;28;20862;-62
2022/04/27 03:41:20;;;;;;;6.47;6.07;;;;;;;;;;5095744;28;20407;-63
2022/04/27 03:43:46;;;;;;;5.90;5.60;;;;;;;;;;5095591;28;20405;-62
2022/04/27 03:46:13;;;;;;;10.20;5.37;;;;;;;;;;5095707;28;20391;-63
2022/04/27 03:48:39;;;;;;;5.77;5.47;;;;;;;;;;5095843;28;20511;-62
2022/04/27 03:51:05;;;;;;;5.90;5.70;;;;;;;;;;5095495;28;20459;-63
2022/04/27 03:53:31;;;;;;;19.10;5.43;;;;;;;;;;5095525;28;20426;-63
2022/04/27 03:55:57;;;;;;;8.30;7.70;;;;;;;;;;5095424;28;20409;-62
2022/04/27 03:58:23;;;;;;;19.73;16.87;;;;;;;;;;5095297;28;20783;-63
2022/04/27 04:00:49;;;;;;;6.87;6.37;;;;;;;;;;5095233;28;20526;-62
2022/04/27 04:03:15;;;;;;;12.20;6.80;;;;;;;;;;5095542;28;20437;-62
2022/04/27 04:05:42;;;;;;;8.70;8.10;;;;;;;;;;5095301;28;20415;-63
2022/04/27 04:08:08;;;;;;;7.60;7.20;;;;;;;;;;5095256;28;20435;-62
2022/04/27 04:10:34;;;;;;;7.23;6.73;;;;;;;;;;5095100;28;20409;-63
2022/04/27 04:13:00;;;;;;;7.37;6.87;;;;;;;;;;5095095;28;20980;-63
2022/04/27 04:15:26;;;;;;;7.40;6.90;;;;;;;;;;5095078;28;20546;-62
2022/04/27 04:17:52;;;;;;;7.17;6.57;;;;;;;;;;5095013;28;20437;-63
2022/04/27 04:20:18;;;;;;;8.13;7.53;;;;;;;;;;5093739;28;20564;-62
2022/04/27 04:22:45;;;;;;;8.60;8.00;;;;;;;;;;5095078;28;20399;-62
2022/04/27 04:30:41;;;;;;;8.77;8.10;;;;;;;;;;5094956;28;20437;-63
2022/04/27 04:33:07;;;;;;;10.07;9.03;;;;;;;;;;5094732;28;20376;-62
2022/04/27 04:35:33;;;;;;;14.00;10.37;;;;;;;;;;5094623;28;20409;-63
2022/04/27 04:37:59;;;;;;;8.80;8.20;;;;;;;;;;5094538;28;20855;-62
2022/04/27 04:40:25;;;;;;;9.77;8.77;;;;;;;;;;5094514;28;20460;-63
2022/04/27 04:42:52;;;;;;;8.03;7.47;;;;;;;;;;5094471;28;20402;-63
2022/04/27 04:45:18;;;;;;;8.17;7.57;;;;;;;;;;5094688;28;20413;-63
2022/04/27 04:47:44;;;;;;;8.90;8.20;;;;;;;;;;5094393;28;20437;-62
2022/04/27 04:50:10;;;;;;;9.87;9.00;;;;;;;;;;5094661;28;20417;-63
2022/04/27 04:52:36;;;;;;;9.23;8.30;;;;;;;;;;5094590;28;20398;-63
2022/04/27 04:55:03;;;;;;;7.67;7.20;;;;;;;;;;5094560;28;20452;-63
2022/04/27 04:57:29;;;;;;;8.90;8.20;;;;;;;;;;5094282;28;20455;-63
2022/04/27 04:59:55;;;;;;;8.63;7.93;;;;;;;;;;5093976;28;20834;-63
2022/04/27 05:02:21;;;;;;;7.73;7.13;;;;;;;;;;5094254;28;20458;-63
2022/04/27 05:04:47;;;;;;;9.47;7.77;;;;;;;;;;5094137;28;20414;-63
2022/04/27 05:07:13;;;;;;;8.30;7.50;;;;;;;;;;5094051;28;20408;-63
2022/04/27 05:09:39;;;;;;;7.83;7.13;;;;;;;;;;5094296;28;20423;-64
2022/04/27 05:12:05;;;;;;;12.70;11.50;;;;;;;;;;5093930;28;20399;-63
2022/04/27 05:14:31;;;;;;;12.40;8.20;;;;;;;;;;5093890;28;20484;-63
2022/04/27 05:16:57;;;;;;;11.83;9.43;;;;;;;;;;5093979;28;20880;-63
2022/04/27 05:19:23;;;;;;;9.13;7.93;;;;;;;;;;5093778;28;21015;-63
2022/04/27 05:21:50;;;;;;;9.27;8.27;;;;;;;;;;5093931;28;20415;-62
2022/04/27 05:24:16;;;;;;;8.90;8.13;;;;;;;;;;5093795;28;20393;-63
2022/04/27 05:26:42;;;;;;;12.30;9.13;;;;;;;;;;5093802;28;20784;-63
2022/04/27 05:31:57;;;;;;;9.90;7.90;;;;;;;;;;5093447;28;20371;-64
2022/04/27 05:34:23;;;;;;;9.10;8.30;;;;;;;;;;5093641;28;20393;-63
2022/04/27 05:36:50;;;;;;;9.07;8.27;;;;;;;;;;5093589;28;20872;-64
2022/04/27 05:39:18;;;;;;;8.40;7.70;;;;;;;;;;5093359;28;20476;-66
2022/04/27 05:41:44;;;;;;;9.67;8.70;;;;;;;;;;5092558;28;20464;-64
2022/04/27 05:44:12;;;;;;;8.70;7.90;;;;;;;;;;5093498;28;20912;-64
2022/04/27 05:46:38;;;;;;;9.87;8.90;;;;;;;;;;5093585;28;20409;-64
2022/04/27 05:49:04;;;;;;;10.43;8.43;;;;;;;;;;5093520;28;20425;-64
2022/04/27 05:51:30;;;;;;;11.27;8.27;;;;;;;;;;5092330;28;20391;-64
2022/04/27 05:53:57;;;;;;;9.17;8.17;;;;;;;;;;5093428;28;20413;-64
2022/04/27 05:56:24;;;;;;;8.10;7.50;;;;;;;;;;5093475;28;20409;-65
2022/04/27 05:58:50;;;;;;;12.60;7.53;;;;;;;;;;5093564;28;20445;-66
2022/04/27 06:01:16;;;;;;;8.00;7.37;;;;;;;;;;5093466;28;20463;-65
2022/04/27 06:03:42;;;;;;;7.80;7.20;;;;;;;;;;5093435;28;20486;-65
2022/04/27 06:06:08;;;;;;;8.77;8.10;;;;;;;;;;5093477;28;20488;-65
2022/04/27 06:08:34;;;;;;;12.60;7.30;;;;;;;;;;5093390;28;20384;-65
2022/04/27 06:11:00;;;;;;;8.40;7.80;;;;;;;;;;5093327;28;20405;-64
2022/04/27 06:13:26;;;;;;;8.17;7.60;;;;;;;;;;5093476;28;20508;-64
2022/04/27 06:15:52;;;;;;;8.53;7.83;;;;;;;;;;5093600;28;20762;-66
2022/04/27 06:18:18;;;;;;;8.60;6.80;;;;;;;;;;5093312;28;20753;-65
2022/04/27 06:20:45;;;;;;;6.60;6.27;;;;;;;;;;5093186;28;20471;-65
2022/04/27 06:23:13;;;;;;;6.07;5.60;;;;;;;;;;5093240;28;20880;-66
2022/04/27 06:25:40;;;;;;;6.70;6.20;;;;;;;;;;5093240;28;20868;-66
2022/04/27 06:28:07;;;;;;;6.23;5.83;;;;;;;;;;5093095;28;20453;-66
2022/04/27 06:30:35;;;;;;;7.10;6.67;;;;;;;;;;5093125;28;20408;-67
2022/04/27 06:33:01;;;;;;;8.00;7.20;;;;;;;;;;5093461;28;20759;-67
2022/04/27 06:35:27;;;;;;;7.33;6.93;;;;;;;;;;5093006;28;20404;-66
2022/04/27 06:37:53;;;;;;;6.30;5.90;;;;;;;;;;5093144;28;20409;-65
2022/04/27 06:40:19;;;;;;;7.50;7.10;;;;;;;;;;5092857;28;20476;-65
2022/04/27 06:42:45;;;;;;;7.50;6.20;;;;;;;;;;5094422;28;20401;-66
2022/04/27 06:45:12;;;;;;;6.83;6.43;;;;;;;;;;5096840;28;20884;-68
2022/04/27 06:47:38;;;;;;;6.53;6.10;;;;;;;;;;5096766;28;20401;-64
2022/04/27 06:50:05;;;;;;;7.73;7.10;;;;;;;;;;5096760;28;20872;-65
2022/04/27 06:52:30;;;;;;;6.77;6.47;;;;;;;;;;5096778;28;20462;-66
2022/04/27 06:54:56;;;;;;;7.07;6.60;;;;;;;;;;5096824;28;20413;-65
2022/04/27 06:57:22;;;;;;;8.07;7.47;;;;;;;;;;5096707;28;20405;-65
2022/04/27 06:59:48;;;;;;;7.07;6.67;;;;;;;;;;5096414;28;20471;-64
2022/04/27 07:02:15;;;;;;;7.87;7.43;;;;;;;;;;5096812;28;20488;-68
2022/04/27 07:04:43;;;;;;;8.27;7.60;;;;;;;;;;5096410;28;20483;-61
2022/04/27 07:07:09;;;;;;;8.30;7.60;;;;;;;;;;5096622;28;20413;-64
2022/04/27 07:09:36;;;;;;;9.03;8.37;;;;;;;;;;5096366;28;20899;-63
2022/04/27 07:12:02;;;;;;;8.63;7.93;;;;;;;;;;5096403;28;20893;-65
2022/04/27 07:14:28;;;;;;;14.03;8.30;;;;;;;;;;5096500;28;20402;-64
2022/04/27 07:16:54;;;;;;;8.87;8.27;;;;;;;;;;5096383;28;20505;-66
2022/04/27 07:19:20;;;;;;;7.20;6.60;;;;;;;;;;5096347;28;20509;-64
2022/04/27 07:21:46;;;;;;;8.80;8.00;;;;;;;;;;5096049;28;20482;-63
2022/04/27 07:24:12;;;;;;;8.20;7.70;;;;;;;;;;5096125;28;20885;-65
2022/04/27 07:26:38;;;;;;;7.70;7.23;;;;;;;;;;5096035;28;20401;-65
2022/04/27 07:29:05;;;;;;;7.83;7.33;;;;;;;;;;5094586;28;20798;-67
2022/04/27 07:31:32;;;;;;;7.97;7.37;;;;;;;;;;5096197;28;20394;-63
2022/04/27 07:33:58;;;;;;;7.97;7.47;;;;;;;;;;5096065;28;20393;-64
2022/04/27 07:36:24;;;;;;;7.47;7.07;;;;;;;;;;5095619;28;20455;-64
2022/04/27 07:38:50;;;;;;;8.50;7.80;;;;;;;;;;5094173;28;20479;-65
2022/04/27 07:41:16;;;;;;;8.40;7.90;;;;;;;;;;5095566;28;20409;-65
2022/04/27 07:43:42;;;;;;;8.37;7.67;;;;;;;;;;5095474;28;20435;-64
2022/04/27 07:46:09;;;;;;;8.10;7.60;;;;;;;;;;5095499;28;20501;-64
2022/04/27 07:48:35;;;;;;;7.97;7.47;;;;;;;;;;5095432;28;20402;-63
2022/04/27 07:51:03;;;;;;;7.13;6.77;;;;;;;;;;5095392;28;20891;-63
2022/04/27 07:53:29;;;;;;;6.67;6.17;;;;;;;;;;5095368;28;20453;-62
2022/04/27 07:55:55;;;;;;;7.13;6.80;;;;;;;;;;5095414;28;20413;-63
2022/04/27 07:58:21;;;;;;;7.87;7.33;;;;;;;;;;5095477;28;20504;-62
2022/04/27 08:00:47;;;;;;;8.23;7.70;;;;;;;;;;5095370;28;21034;-62
2022/04/27 08:03:13;;;;;;;7.97;7.43;;;;;;;;;;5095276;28;20417;-63
2022/04/27 08:05:39;;;;;;;8.57;7.97;;;;;;;;;;5095240;28;20471;-63
2022/04/27 08:08:08;;;;;;;8.23;7.73;;;;;;;;;;5095096;28;20401;-63
2022/04/27 08:10:34;;;;;;;7.50;7.10;;;;;;;;;;5095011;28;20409;-64
2022/04/27 08:13:00;;;;;;;9.17;8.57;;;;;;;;;;5094968;28;20424;-64
2022/04/27 08:15:26;;;;;;;10.67;9.13;;;;;;;;;;5094838;28;20864;-64
2022/04/27 08:17:53;;;;;;;9.10;8.37;;;;;;;;;;5094907;28;20405;-62
2022/04/27 08:23:09;;;;;;;11.40;8.37;;;;;;;;;;5095045;28;20393;-63
2022/04/27 08:25:36;;;;;;;9.40;8.50;;;;;;;;;;5094635;28;20409;-64
2022/04/27 08:28:05;;;;;;;8.67;8.07;;;;;;;;;;5094943;28;20400;-63
2022/04/27 08:30:32;;;;;;;7.40;7.00;;;;;;;;;;5094993;28;20397;-63
2022/04/27 08:33:00;;;;;;;8.77;7.77;;;;;;;;;;5094631;28;20888;-63
2022/04/27 08:35:31;;;;;;;7.47;6.83;;;;;;;;;;5094682;28;20394;-63
2022/04/27 08:37:57;;;;;;;7.20;6.80;;;;;;;;;;5094500;28;20388;-64
2022/04/27 08:40:24;;;;;;;7.23;6.73;;;;;;;;;;5094415;28;20465;-63
2022/04/27 08:42:50;;;;;;;6.43;6.13;;;;;;;;;;5094416;28;20390;-63
2022/04/27 08:45:17;;;;;;;7.10;6.70;;;;;;;;;;5094465;28;20413;-64
2022/04/27 08:47:43;;;;;;;7.17;6.77;;;;;;;;;;5094379;28;20390;-63
2022/04/27 08:50:13;;;;;;;8.53;8.03;;;;;;;;;;5093153;28;20433;-62
2022/04/27 08:52:40;;;;;;;10.40;9.70;;;;;;;;;;5094387;28;20423;-64
2022/04/27 08:55:07;;;;;;;8.50;7.90;;;;;;;;;;5094297;28;20968;-64
2022/04/27 08:57:33;;;;;;;8.27;7.77;;;;;;;;;;5094591;28;20424;-65
2022/04/27 08:59:59;;;;;;;8.27;7.77;;;;;;;;;;5094379;28;20460;-66
2022/04/27 09:02:29;;;;;;;7.20;6.90;;;;;;;;;;5094235;28;20416;-63
2022/04/27 09:05:12;;;;;;;8.40;7.90;;;;;;;;;;5093503;28;20459;-67
2022/04/27 09:07:42;;;;;;;7.17;6.53;;;;;;;;;;5094104;28;20904;-65
2022/04/27 09:10:09;;;;;;;6.00;5.80;;;;;;;;;;5094081;28;20817;-66
2022/04/27 09:12:38;;;;;;;6.37;5.97;;;;;;;;;;5093896;28;20979;-65
2022/04/27 09:15:05;;;;;;;5.80;5.60;;;;;;;;;;5093879;28;20405;-69
2022/04/27 09:23:06;;;;;;;6.33;6.03;;;;;;;;;;5094057;28;20404;-64
2022/04/27 09:25:33;;;;;;;5.90;5.70;;;;;;;;;;5094057;28;20410;-65
2022/04/27 09:28:01;;;;;;;4.83;4.53;;;;;;;;;;5093824;28;20391;-65
2022/04/27 09:30:27;;;;;;;5.80;5.50;;;;;;;;;;5093725;28;20883;-64
2022/04/27 09:32:53;;;;;;;5.30;5.10;;;;;;;;;;5093696;28;20407;-65
2022/04/27 09:35:36;;;;;;;5.13;4.93;;;;;;;;;;5093620;28;20403;-66
2022/04/27 09:38:15;;;;;;;4.57;4.37;;;;;;;;;;5093560;28;20426;-64
2022/04/27 09:40:45;;;;;;;5.70;5.40;;;;;;;;;;5093537;28;20825;-65
2022/04/27 09:43:15;;;;;;;4.83;4.73;;;;;;;;;;5093708;28;20886;-66
2022/04/27 09:45:45;;;;;;;4.50;4.40;;;;;;;;;;5092210;28;20933;-66
2022/04/27 09:48:20;;;;;;;4.57;4.20;;;;;;;;;;5093882;28;20811;-64
2022/04/27 09:50:59;;;;;;;4.40;4.30;;;;;;;;;;5093318;28;20887;-63
2022/04/27 09:53:26;;;;;;;5.07;4.97;;;;;;;;;;5093494;28;20480;-64
2022/04/27 09:55:54;;;;;;;4.27;4.10;;;;;;;;;;5093315;28;20416;-64
2022/04/27 09:58:21;;;;;;;4.33;4.23;;;;;;;;;;5093336;28;20420;-64
2022/04/27 10:00:52;;;;;;;3.90;3.80;;;;;;;;;;5093345;28;20511;-66
2022/04/27 10:03:19;;;;;;;4.83;4.73;;;;;;;;;;5093281;28;20400;-65
2022/04/27 10:05:45;;;;;;;4.07;3.97;;;;;;;;;;5093346;28;20407;-65
2022/04/27 10:08:11;;;;;;;16.87;8.27;;;;;;;;;;5093439;28;20452;-66
2022/04/27 10:10:41;;;;;;;6.53;5.50;;;;;;;;;;5093430;28;20469;-66
2022/04/27 10:13:11;;;;;;;4.97;4.67;;;;;;;;;;5093261;28;20415;-66
2022/04/27 10:15:41;;;;;;;4.57;4.47;;;;;;;;;;5090157;28;20489;-66
2022/04/27 10:18:08;;;;;;;4.30;4.20;;;;;;;;;;5094243;28;20419;-65
2022/04/27 10:20:35;;;;;;;3.63;3.53;;;;;;;;;;5094611;28;20470;-65
2022/04/27 10:23:17;;;;;;;15.53;5.90;;;;;;;;;;5094915;28;20451;-65
2022/04/27 10:25:43;;;;;;;3.90;3.90;;;;;;;;;;5087449;28;20428;-65
2022/04/27 10:28:19;;;;;;;3.63;3.53;;;;;;;;;;5094287;28;20427;-64
2022/04/27 10:30:45;;;;;;;3.70;3.60;;;;;;;;;;5096734;28;20858;-63
2022/04/27 10:33:11;;;;;;;4.20;4.00;;;;;;;;;;5097110;28;20918;-66
2022/04/27 10:35:37;;;;;;;4.63;4.53;;;;;;;;;;5097062;28;20415;-65
2022/04/27 10:38:07;;;;;;;5.17;4.97;;;;;;;;;;5095625;28;20449;-66
2022/04/27 10:40:34;;;;;;;5.80;5.60;;;;;;;;;;5097040;28;20469;-64
2022/04/27 10:43:14;;;;;;;6.17;5.87;;;;;;;;;;5096765;28;20402;-65
2022/04/27 10:45:49;;;;;;;5.00;4.90;;;;;;;;;;5096869;28;20835;-64
2022/04/27 10:48:15;;;;;;;4.30;4.20;;;;;;;;;;5096891;28;20401;-63
2022/04/27 10:50:53;;;;;;;5.40;5.20;;;;;;;;;;5096677;28;20813;-62
2022/04/27 10:53:20;;;;;;;5.00;4.90;;;;;;;;;;5096712;28;20795;-63
2022/04/27 10:55:48;;;;;;;4.70;4.60;;;;;;;;;;5096502;28;20883;-62
2022/04/27 10:58:17;;;;;;;4.23;4.20;;;;;;;;;;5096546;28;20411;-63
2022/04/27 11:00:58;;;;;;;4.60;4.50;;;;;;;;;;5096674;28;20465;-64
2022/04/27 11:03:28;;;;;;;5.10;4.90;;;;;;;;;;5096537;28;20405;-63
2022/04/27 11:05:58;;;;;;;4.80;4.60;;;;;;;;;;5096429;28;20398;-62
2022/04/27 11:08:33;;;;;;;6.07;4.40;;;;;;;;;;5096443;28;20413;-63
2022/04/27 11:11:03;;;;;;;4.70;4.50;;;;;;;;;;5095059;28;20405;-62
2022/04/27 11:13:33;;;;;;;4.37;4.27;;;;;;;;;;5096265;28;20427;-63
2022/04/27 11:16:08;;;;;;;4.63;4.53;;;;;;;;;;5096188;28;20399;-62
2022/04/27 11:18:55;;;;;;;4.87;4.43;;;;;;;;;;5096196;28;20418;-63
2022/04/27 11:21:21;;;;;;;4.50;4.40;;;;;;;;;;5095981;28;20461;-63
2022/04/27 11:23:47;;;;;;;4.17;4.07;;;;;;;;;;5094772;28;20436;-64
2022/04/27 11:26:13;;;;;;;4.33;4.23;;;;;;;;;;5096027;28;20415;-63
2022/04/27 11:28:40;;;;;;;4.57;4.47;;;;;;;;;;5095327;28;20407;-63
2022/04/27 11:31:06;;;;;;;4.70;4.60;;;;;;;;;;5096183;28;20398;-64
2022/04/27 11:33:38;;;;;;;4.17;4.07;;;;;;;;;;5095896;28;20901;-65
2022/04/27 11:36:04;;;;;;;4.67;4.57;;;;;;;;;;5096030;28;20410;-64
2022/04/27 11:38:34;;;;;;;3.77;3.67;;;;;;;;;;5095713;28;20462;-66
2022/04/27 11:41:02;;;;;;;4.50;4.20;;;;;;;;;;5095699;28;20470;-65
2022/04/27 11:43:28;;;;;;;4.27;4.17;;;;;;;;;;5095721;28;20792;-64
2022/04/27 11:45:57;;;;;;;4.40;4.20;;;;;;;;;;5095628;28;20888;-64
2022/04/27 11:48:24;;;;;;;4.97;4.57;;;;;;;;;;5094419;28;20619;-64
2022/04/27 11:50:51;;;;;;;4.10;4.00;;;;;;;;;;5095587;28;20917;-66
2022/04/27 11:53:17;;;;;;;3.03;2.93;;;;;;;;;;5095931;28;20898;-65
2022/04/27 11:55:49;;;;;;;4.40;4.30;;;;;;;;;;5095430;28;20413;-65
2022/04/27 11:58:21;;;;;;;4.07;3.97;;;;;;;;;;5095392;28;20409;-64
2022/04/27 12:00:49;;;;;;;3.70;3.60;;;;;;;;;;5095304;28;20471;-64
2022/04/27 12:03:15;;;;;;;3.40;3.40;;;;;;;;;;5095609;28;20416;-63
2022/04/27 12:05:41;;;;;;;3.70;3.50;;;;;;;;;;5095303;28;20443;-64
2022/04/27 12:08:11;;;;;;;2.13;2.13;;;;;;;;;;5095162;28;20892;-63
2022/04/27 12:10:42;;;;;;;2.33;2.33;;;;;;;;;;5095232;28;20396;-64
2022/04/27 12:13:08;;;;;;;2.37;2.37;;;;;;;;;;5095034;28;20397;-64
2022/04/27 12:15:36;;;;;;;2.93;2.33;;;;;;;;;;5095107;28;20401;-65
2022/04/27 12:18:03;;;;;;;4.37;2.37;;;;;;;;;;5095107;28;20464;-62
2022/04/27 12:20:30;;;;;;;2.10;2.00;;;;;;;;;;5095186;28;20463;-64
2022/04/27 12:23:00;;;;;;;2.53;2.00;;;;;;;;;;5094874;28;20752;-64
2022/04/27 12:25:37;;;;;;;1.90;1.90;;;;;;;;;;5094859;28;20408;-64
2022/04/27 12:28:03;;;;;;;1.97;1.97;;;;;;;;;;5094751;28;20410;-63
2022/04/27 12:30:30;;;;;;;1.90;1.50;;;;;;;;;;5094895;28;20415;-63
2022/04/27 12:32:57;;;;;;;2.00;1.90;;;;;;;;;;5095037;28;20427;-63
2022/04/27 12:38:17;;;;;;;1.50;1.50;;;;;;;;;;5094635;28;20405;-63
2022/04/27 12:40:43;;;;;;;1.63;1.53;;;;;;;;;;5093731;28;20504;-63
2022/04/27 12:43:11;;;;;;;1.37;1.37;;;;;;;;;;5094492;28;20450;-63
2022/04/27 12:45:38;;;;;;;2.83;1.60;;;;;;;;;;5094467;28;20899;-65
2022/04/27 12:48:07;;;;;;;1.47;1.47;;;;;;;;;;5094511;28;20454;-64
2022/04/27 12:50:47;;;;;;;1.43;1.40;;;;;;;;;;5094438;28;20904;-64
2022/04/27 12:53:13;;;;;;;1.40;1.40;;;;;;;;;;5094697;28;20412;-64
2022/04/27 12:55:39;;;;;;;1.27;1.27;;;;;;;;;;5094301;28;20392;-63
2022/04/27 12:58:05;;;;;;;4.57;1.40;;;;;;;;;;5094321;28;20469;-65
2022/04/27 13:00:38;;;;;;;1.77;1.37;;;;;;;;;;5094256;28;20463;-65
2022/04/27 13:03:05;;;;;;;1.43;1.43;;;;;;;;;;5094166;28;20528;-62
2022/04/27 13:05:31;;;;;;;1.20;1.20;;;;;;;;;;5094147;28;20407;-62
2022/04/27 13:07:57;;;;;;;1.63;1.63;;;;;;;;;;5094345;28;20411;-61
2022/04/27 13:13:08;;;;;;;5.30;1.40;;;;;;;;;;5093914;28;20397;-63
2022/04/27 13:15:34;;;;;;;1.57;1.47;;;;;;;;;;5092947;28;20921;-64
2022/04/27 13:18:00;;;;;;;2.00;1.53;;;;;;;;;;5094235;28;20404;-63
2022/04/27 13:20:26;;;;;;;1.40;1.40;;;;;;;;;;5093913;28;20479;-63
2022/04/27 13:22:52;;;;;;;1.43;1.43;;;;;;;;;;5093862;28;20488;-64
2022/04/27 13:25:18;;;;;;;1.50;1.40;;;;;;;;;;5093704;28;20888;-63
2022/04/27 13:27:44;;;;;;;1.40;1.30;;;;;;;;;;5093839;28;20401;-64
2022/04/27 13:30:10;;;;;;;1.47;1.47;;;;;;;;;;5093854;28;20428;-69
2022/04/27 13:32:37;;;;;;;1.60;1.57;;;;;;;;;;5093707;28;20864;-66
2022/04/27 13:35:03;;;;;;;1.13;1.13;;;;;;;;;;5093665;28;20890;-64
2022/04/27 13:37:29;;;;;;;1.37;1.37;;;;;;;;;;5093685;28;20763;-64
2022/04/27 13:39:56;;;;;;;2.30;1.40;;;;;;;;;;5093484;28;20492;-64
2022/04/27 13:42:23;;;;;;;2.00;1.10;;;;;;;;;;5093584;28;20865;-63
2022/04/27 13:44:49;;;;;;;1.37;1.37;;;;;;;;;;5093594;28;20424;-63
2022/04/27 13:47:16;;;;;;;1.10;1.10;;;;;;;;;;5093653;28;20574;-64
2022/04/27 13:49:42;;;;;;;5.93;1.33;;;;;;;;;;5093805;28;20449;-63
2022/04/27 13:52:08;;;;;;;1.43;1.43;;;;;;;;;;5093837;28;20473;-64
2022/04/27 13:54:34;;;;;;;1.30;1.30;;;;;;;;;;5093503;28;20838;-63
2022/04/27 13:57:00;;;;;;;1.43;1.43;;;;;;;;;;5093504;28;20443;-63
2022/04/27 13:59:26;;;;;;;1.20;1.20;;;;;;;;;;5093332;28;20487;-63
2022/04/27 14:01:52;;;;;;;1.60;1.60;;;;;;;;;;5093424;28;20416;-64
2022/04/27 14:04:18;;;;;;;1.43;1.33;;;;;;;;;;5093477;28;20410;-63
2022/04/27 14:06:45;;;;;;;1.10;1.10;;;;;;;;;;5093478;28;20953;-64
2022/04/27 14:09:11;;;;;;;1.53;1.43;;;;;;;;;;5093490;28;20404;-63
2022/04/27 14:14:22;;;;;;;1.70;1.40;;;;;;;;;;5093321;28;20943;-63
2022/04/27 14:19:34;;;;;;;1.07;1.07;;;;;;;;;;5093251;28;20467;-64
2022/04/27 14:22:00;;;;;;;20.07;18.13;;;;;;;;;;5093422;28;20413;-64
2022/04/27 14:24:26;;;;;;;1.73;1.20;;;;;;;;;;5091959;28;20518;-64
2022/04/27 14:26:52;;;;;;;1.50;1.50;;;;;;;;;;5093209;28;20476;-64
2022/04/27 14:29:18;;;;;;;1.13;1.10;;;;;;;;;;5093228;28;20425;-63
2022/04/27 14:31:44;;;;;;;1.40;1.40;;;;;;;;;;5093329;28;20425;-64
2022/04/27 14:34:10;;;;;;;1.50;1.50;;;;;;;;;;5093177;28;20772;-64
2022/04/27 14:36:36;;;;;;;1.40;1.30;;;;;;;;;;5093178;28;20423;-64
2022/04/27 14:39:02;;;;;;;1.40;1.40;;;;;;;;;;5093027;28;20458;-64
2022/04/27 14:41:30;;;;;;;1.27;1.07;;;;;;;;;;5093260;28;20464;-64
2022/04/27 14:43:56;;;;;;;6.47;3.60;;;;;;;;;;5091783;28;20424;-66
2022/04/27 14:46:23;;;;;;;3.37;3.27;;;;;;;;;;5093110;28;20410;-64
2022/04/27 14:48:49;;;;;;;1.80;1.30;;;;;;;;;;5093209;28;20409;-63
2022/04/27 14:51:15;;;;;;;1.60;1.53;;;;;;;;;;5093266;28;20807;-63
2022/04/27 14:53:41;;;;;;;2.00;1.37;;;;;;;;;;5091656;28;20544;-63
2022/04/27 14:56:07;;;;;;;1.57;1.57;;;;;;;;;;5092814;28;20464;-63
2022/04/27 14:58:33;;;;;;;1.43;1.43;;;;;;;;;;5092919;28;20417;-63
2022/04/27 15:01:01;;;;;;;4.73;4.43;;;;;;;;;;5092894;28;20511;-64
2022/04/27 15:03:28;;;;;;;3.90;3.80;;;;;;;;;;5093766;28;20409;-63
2022/04/27 15:05:54;;;;;;;2.90;2.70;;;;;;;;;;5096712;28;20830;-63
2022/04/27 15:08:20;;;;;;;1.80;1.70;;;;;;;;;;5095118;28;21007;-63
2022/04/27 15:10:46;;;;;;;1.83;1.73;;;;;;;;;;5096391;28;20927;-63
2022/04/27 15:13:13;;;;;;;1.40;1.40;;;;;;;;;;5096186;28;20447;-62
2022/04/27 15:15:39;;;;;;;1.50;1.50;;;;;;;;;;5096205;28;20410;-65